sensor_id;sensor_type;location;lat;lon;timestamp;temperature;humidity
74901;DHT22;63461;51.416;6.758;2023-06-26T00:01:06;22.90;99.90
74901;DHT22;63461;51.416;6.758;2023-06-26T00:03:33;22.90;99.90
74901;DHT22;63461;51.416;6.758;2023-06-26T00:05:59;22.90;99.90
74901;DHT22;63461;51.416;6.758;2023-06-26T00:08:27;22.90;99.90
74901;DHT22;63461;51.416;6.758;2023-06-26T00:10:53;22.90;99.90
74901;DHT22;63461;51.416;6.758;2023-06-26T00:13:19;22.90;99.90
74901;DHT22;63461;51.416;6.758;2023-06-26T00:15:45;22.80;99.90
74901;DHT22;63461;51.416;6.758;2023-06-26T00:18:11;22.80;99.90
74901;DHT22;63461;51.416;6.758;2023-06-26T00:20:37;22.70;99.90
74901;DHT22;63461;51.416;6.758;2023-06-26T00:23:02;22.80;99.90
74901;DHT22;63461;51.416;6.758;2023-06-26T00:25:33;22.70;99.90
74901;DHT22;63461;51.416;6.758;2023-06-26T00:27:59;22.70;99.90
74901;DHT22;63461;51.416;6.758;2023-06-26T00:30:25;22.70;99.90
74901;DHT22;63461;51.416;6.758;2023-06-26T00:32:51;22.70;99.90
74901;DHT22;63461;51.416;6.758;2023-06-26T00:35:17;22.70;99.90
74901;DHT22;63461;51.416;6.758;2023-06-26T00:37:44;22.60;99.90
74901;DHT22;63461;51.416;6.758;2023-06-26T00:40:10;22.60;99.90
74901;DHT22;63461;51.416;6.758;2023-06-26T00:42:36;22.60;99.90
74901;DHT22;63461;51.416;6.758;2023-06-26T00:45:01;22.60;99.90
74901;DHT22;63461;51.416;6.758;2023-06-26T00:47:30;22.50;99.90
74901;DHT22;63461;51.416;6.758;2023-06-26T00:49:56;22.50;99.90
74901;DHT22;63461;51.416;6.758;2023-06-26T00:52:21;22.50;99.90
74901;DHT22;63461;51.416;6.758;2023-06-26T00:54:50;22.50;99.90
74901;DHT22;63461;51.416;6.758;2023-06-26T00:57:17;22.50;99.90
74901;DHT22;63461;51.416;6.758;2023-06-26T00:59:43;22.40;99.90
74901;DHT22;63461;51.416;6.758;2023-06-26T01:02:09;22.40;99.90
74901;DHT22;63461;51.416;6.758;2023-06-26T01:04:35;22.40;99.90
74901;DHT22;63461;51.416;6.758;2023-06-26T01:07:02;22.40;99.90
74901;DHT22;63461;51.416;6.758;2023-06-26T01:09:30;22.40;99.90
74901;DHT22;63461;51.416;6.758;2023-06-26T01:11:56;22.40;99.90
74901;DHT22;63461;51.416;6.758;2023-06-26T01:14:22;22.30;99.90
74901;DHT22;63461;51.416;6.758;2023-06-26T01:16:49;22.30;99.90
74901;DHT22;63461;51.416;6.758;2023-06-26T01:19:34;22.30;99.90
74901;DHT22;63461;51.416;6.758;2023-06-26T01:25:11;22.20;99.90
74901;DHT22;63461;51.416;6.758;2023-06-26T01:27:38;22.20;99.90
74901;DHT22;63461;51.416;6.758;2023-06-26T01:30:06;22.20;99.90
74901;DHT22;63461;51.416;6.758;2023-06-26T01:32:35;22.20;99.90
74901;DHT22;63461;51.416;6.758;2023-06-26T01:35:02;22.20;99.90
74901;DHT22;63461;51.416;6.758;2023-06-26T01:37:29;22.10;99.90
74901;DHT22;63461;51.416;6.758;2023-06-26T01:39:55;22.10;99.90
74901;DHT22;63461;51.416;6.758;2023-06-26T01:42:21;22.10;99.90
74901;DHT22;63461;51.416;6.758;2023-06-26T01:44:47;22.10;99.90
74901;DHT22;63461;51.416;6.758;2023-06-26T01:47:17;22.00;99.90
74901;DHT22;63461;51.416;6.758;2023-06-26T01:50:11;22.00;99.90
74901;DHT22;63461;51.416;6.758;2023-06-26T01:58:03;21.90;99.90
74901;DHT22;63461;51.416;6.758;2023-06-26T02:00:29;22.00;99.90
74901;DHT22;63461;51.416;6.758;2023-06-26T02:02:57;21.90;99.90
74901;DHT22;63461;51.416;6.758;2023-06-26T02:05:23;21.90;99.90
74901;DHT22;63461;51.416;6.758;2023-06-26T02:07:49;21.90;99.90
74901;DHT22;63461;51.416;6.758;2023-06-26T02:10:15;21.90;99.90
74901;DHT22;63461;51.416;6.758;2023-06-26T02:12:41;21.90;99.90
74901;DHT22;63461;51.416;6.758;2023-06-26T02:15:08;21.90;99.90
74901;DHT22;63461;51.416;6.758;2023-06-26T02:17:34;21.90;99.90
74901;DHT22;63461;51.416;6.758;2023-06-26T02:20:00;21.80;99.90
74901;DHT22;63461;51.416;6.758;2023-06-26T02:22:25;21.80;99.90
74901;DHT22;63461;51.416;6.758;2023-06-26T02:24:51;21.80;99.90
74901;DHT22;63461;51.416;6.758;2023-06-26T02:27:17;21.90;99.90
74901;DHT22;63461;51.416;6.758;2023-06-26T02:29:43;21.90;99.90
74901;DHT22;63461;51.416;6.758;2023-06-26T02:32:09;21.80;99.90
74901;DHT22;63461;51.416;6.758;2023-06-26T02:34:35;21.80;99.90
74901;DHT22;63461;51.416;6.758;2023-06-26T02:37:01;21.80;99.90
74901;DHT22;63461;51.416;6.758;2023-06-26T02:39:27;21.80;99.90
74901;DHT22;63461;51.416;6.758;2023-06-26T02:41:54;21.80;99.90
74901;DHT22;63461;51.416;6.758;2023-06-26T02:44:21;21.80;99.90
74901;DHT22;63461;51.416;6.758;2023-06-26T02:46:47;21.80;99.90
74901;DHT22;63461;51.416;6.758;2023-06-26T02:49:14;21.80;99.90
74901;DHT22;63461;51.416;6.758;2023-06-26T02:51:39;21.80;99.90
74901;DHT22;63461;51.416;6.758;2023-06-26T02:54:12;21.80;99.90
74901;DHT22;63461;51.416;6.758;2023-06-26T02:56:40;21.80;99.90
74901;DHT22;63461;51.416;6.758;2023-06-26T02:59:06;21.80;99.90
74901;DHT22;63461;51.416;6.758;2023-06-26T03:01:31;21.80;99.90
74901;DHT22;63461;51.416;6.758;2023-06-26T03:03:57;21.90;99.90
74901;DHT22;63461;51.416;6.758;2023-06-26T03:06:23;21.90;99.90
74901;DHT22;63461;51.416;6.758;2023-06-26T03:08:49;22.00;99.90
74901;DHT22;63461;51.416;6.758;2023-06-26T03:11:15;22.10;99.90
74901;DHT22;63461;51.416;6.758;2023-06-26T03:13:40;22.00;99.90
74901;DHT22;63461;51.416;6.758;2023-06-26T03:16:06;22.10;99.90
74901;DHT22;63461;51.416;6.758;2023-06-26T03:18:32;22.10;99.90
74901;DHT22;63461;51.416;6.758;2023-06-26T03:20:58;22.00;99.90
74901;DHT22;63461;51.416;6.758;2023-06-26T03:23:26;22.00;99.90
74901;DHT22;63461;51.416;6.758;2023-06-26T03:25:52;22.00;99.90
74901;DHT22;63461;51.416;6.758;2023-06-26T03:28:26;22.00;99.90
74901;DHT22;63461;51.416;6.758;2023-06-26T03:30:52;21.90;99.90
74901;DHT22;63461;51.416;6.758;2023-06-26T03:33:18;22.00;99.90
74901;DHT22;63461;51.416;6.758;2023-06-26T03:35:44;21.90;99.90
74901;DHT22;63461;51.416;6.758;2023-06-26T03:38:12;21.90;99.90
74901;DHT22;63461;51.416;6.758;2023-06-26T03:40:39;21.90;99.90
74901;DHT22;63461;51.416;6.758;2023-06-26T03:43:05;21.90;99.90
74901;DHT22;63461;51.416;6.758;2023-06-26T03:45:42;21.90;99.90
74901;DHT22;63461;51.416;6.758;2023-06-26T03:48:08;21.90;99.90
74901;DHT22;63461;51.416;6.758;2023-06-26T03:50:35;21.90;99.90
74901;DHT22;63461;51.416;6.758;2023-06-26T03:53:02;21.90;99.90
74901;DHT22;63461;51.416;6.758;2023-06-26T03:55:28;21.90;99.90
74901;DHT22;63461;51.416;6.758;2023-06-26T03:57:53;21.90;99.90
74901;DHT22;63461;51.416;6.758;2023-06-26T04:00:19;21.90;99.90
74901;DHT22;63461;51.416;6.758;2023-06-26T04:02:45;21.90;99.90
74901;DHT22;63461;51.416;6.758;2023-06-26T04:05:12;21.90;99.90
74901;DHT22;63461;51.416;6.758;2023-06-26T04:07:38;21.90;99.90
74901;DHT22;63461;51.416;6.758;2023-06-26T04:10:06;22.00;99.90
74901;DHT22;63461;51.416;6.758;2023-06-26T04:12:33;22.00;99.90
74901;DHT22;63461;51.416;6.758;2023-06-26T04:14:59;22.00;99.90
74901;DHT22;63461;51.416;6.758;2023-06-26T04:17:24;22.00;99.90
74901;DHT22;63461;51.416;6.758;2023-06-26T04:19:50;22.00;99.90
74901;DHT22;63461;51.416;6.758;2023-06-26T04:22:16;22.00;99.90
74901;DHT22;63461;51.416;6.758;2023-06-26T04:24:42;22.00;99.90
74901;DHT22;63461;51.416;6.758;2023-06-26T04:27:09;22.10;99.90
74901;DHT22;63461;51.416;6.758;2023-06-26T04:29:34;22.10;99.90
74901;DHT22;63461;51.416;6.758;2023-06-26T04:32:00;22.10;99.90
74901;DHT22;63461;51.416;6.758;2023-06-26T04:34:29;22.10;99.90
74901;DHT22;63461;51.416;6.758;2023-06-26T04:36:58;22.10;99.90
74901;DHT22;63461;51.416;6.758;2023-06-26T04:39:23;22.20;99.90
74901;DHT22;63461;51.416;6.758;2023-06-26T04:41:49;22.30;99.90
74901;DHT22;63461;51.416;6.758;2023-06-26T04:44:15;22.30;99.90
74901;DHT22;63461;51.416;6.758;2023-06-26T04:46:41;22.40;99.90
74901;DHT22;63461;51.416;6.758;2023-06-26T04:49:10;22.30;99.90
74901;DHT22;63461;51.416;6.758;2023-06-26T04:51:36;22.20;99.90
74901;DHT22;63461;51.416;6.758;2023-06-26T04:54:09;22.20;99.90
74901;DHT22;63461;51.416;6.758;2023-06-26T04:56:35;22.20;99.90
74901;DHT22;63461;51.416;6.758;2023-06-26T04:59:01;22.30;99.90
74901;DHT22;63461;51.416;6.758;2023-06-26T05:01:29;22.40;99.90
74901;DHT22;63461;51.416;6.758;2023-06-26T05:03:58;22.30;99.90
74901;DHT22;63461;51.416;6.758;2023-06-26T05:06:24;22.30;99.90
74901;DHT22;63461;51.416;6.758;2023-06-26T05:08:50;22.30;99.90
74901;DHT22;63461;51.416;6.758;2023-06-26T05:11:16;22.30;99.90
74901;DHT22;63461;51.416;6.758;2023-06-26T05:13:42;22.20;99.90
74901;DHT22;63461;51.416;6.758;2023-06-26T05:16:09;22.20;99.90
74901;DHT22;63461;51.416;6.758;2023-06-26T05:18:35;22.20;99.90
74901;DHT22;63461;51.416;6.758;2023-06-26T05:21:01;22.20;99.90
74901;DHT22;63461;51.416;6.758;2023-06-26T05:23:31;22.30;99.90
74901;DHT22;63461;51.416;6.758;2023-06-26T05:25:57;22.30;99.90
74901;DHT22;63461;51.416;6.758;2023-06-26T05:28:24;22.30;99.90
74901;DHT22;63461;51.416;6.758;2023-06-26T05:30:51;22.30;99.90
74901;DHT22;63461;51.416;6.758;2023-06-26T05:33:18;22.40;99.90
74901;DHT22;63461;51.416;6.758;2023-06-26T05:35:45;22.50;99.90
74901;DHT22;63461;51.416;6.758;2023-06-26T05:38:12;22.50;99.90
74901;DHT22;63461;51.416;6.758;2023-06-26T05:40:39;22.50;99.90
74901;DHT22;63461;51.416;6.758;2023-06-26T05:43:06;22.50;99.90
74901;DHT22;63461;51.416;6.758;2023-06-26T05:45:33;22.40;99.90
74901;DHT22;63461;51.416;6.758;2023-06-26T05:47:59;22.30;99.90
74901;DHT22;63461;51.416;6.758;2023-06-26T05:50:25;22.30;99.90
74901;DHT22;63461;51.416;6.758;2023-06-26T05:52:51;22.40;99.90
74901;DHT22;63461;51.416;6.758;2023-06-26T05:55:17;22.40;99.90
74901;DHT22;63461;51.416;6.758;2023-06-26T05:57:45;22.20;99.90
74901;DHT22;63461;51.416;6.758;2023-06-26T06:00:12;22.20;99.90
74901;DHT22;63461;51.416;6.758;2023-06-26T06:02:42;22.30;99.90
74901;DHT22;63461;51.416;6.758;2023-06-26T06:05:08;22.50;99.90
74901;DHT22;63461;51.416;6.758;2023-06-26T06:07:34;22.50;99.90
74901;DHT22;63461;51.416;6.758;2023-06-26T06:10:01;22.40;99.90
74901;DHT22;63461;51.416;6.758;2023-06-26T06:12:27;22.30;99.90
74901;DHT22;63461;51.416;6.758;2023-06-26T06:14:53;22.30;99.90
74901;DHT22;63461;51.416;6.758;2023-06-26T06:17:20;22.20;99.90
74901;DHT22;63461;51.416;6.758;2023-06-26T06:19:46;22.30;99.90
74901;DHT22;63461;51.416;6.758;2023-06-26T06:22:12;22.10;99.90
74901;DHT22;63461;51.416;6.758;2023-06-26T06:24:37;22.20;99.90
74901;DHT22;63461;51.416;6.758;2023-06-26T06:27:03;22.20;99.90
74901;DHT22;63461;51.416;6.758;2023-06-26T06:29:29;22.20;99.90
74901;DHT22;63461;51.416;6.758;2023-06-26T06:31:55;22.30;99.90
74901;DHT22;63461;51.416;6.758;2023-06-26T06:34:20;22.30;99.90
74901;DHT22;63461;51.416;6.758;2023-06-26T06:36:46;22.30;99.90
74901;DHT22;63461;51.416;6.758;2023-06-26T06:39:12;22.20;99.90
74901;DHT22;63461;51.416;6.758;2023-06-26T06:41:38;22.30;99.90
74901;DHT22;63461;51.416;6.758;2023-06-26T06:44:05;22.60;99.90
74901;DHT22;63461;51.416;6.758;2023-06-26T06:46:31;22.80;99.90
74901;DHT22;63461;51.416;6.758;2023-06-26T06:48:57;23.00;99.90
74901;DHT22;63461;51.416;6.758;2023-06-26T06:51:22;22.90;99.90
74901;DHT22;63461;51.416;6.758;2023-06-26T06:53:48;22.60;99.90
74901;DHT22;63461;51.416;6.758;2023-06-26T06:56:14;22.70;99.90
74901;DHT22;63461;51.416;6.758;2023-06-26T06:58:40;22.90;99.90
74901;DHT22;63461;51.416;6.758;2023-06-26T07:01:09;22.80;99.90
74901;DHT22;63461;51.416;6.758;2023-06-26T07:03:35;22.90;99.90
74901;DHT22;63461;51.416;6.758;2023-06-26T07:06:02;22.90;99.90
74901;DHT22;63461;51.416;6.758;2023-06-26T07:08:29;22.60;99.90
74901;DHT22;63461;51.416;6.758;2023-06-26T07:10:55;22.50;99.90
74901;DHT22;63461;51.416;6.758;2023-06-26T07:13:24;22.50;99.90
74901;DHT22;63461;51.416;6.758;2023-06-26T07:15:50;22.40;99.90
74901;DHT22;63461;51.416;6.758;2023-06-26T07:18:16;22.50;99.90
74901;DHT22;63461;51.416;6.758;2023-06-26T07:20:42;22.60;99.90
74901;DHT22;63461;51.416;6.758;2023-06-26T07:23:08;22.60;99.90
74901;DHT22;63461;51.416;6.758;2023-06-26T07:25:34;22.70;99.90
74901;DHT22;63461;51.416;6.758;2023-06-26T07:28:00;22.70;99.90
74901;DHT22;63461;51.416;6.758;2023-06-26T07:30:26;22.90;99.90
74901;DHT22;63461;51.416;6.758;2023-06-26T07:32:52;23.00;99.90
74901;DHT22;63461;51.416;6.758;2023-06-26T07:35:17;23.10;99.90
74901;DHT22;63461;51.416;6.758;2023-06-26T07:37:43;23.20;99.90
74901;DHT22;63461;51.416;6.758;2023-06-26T07:40:10;23.30;99.90
74901;DHT22;63461;51.416;6.758;2023-06-26T07:42:35;23.30;99.90
74901;DHT22;63461;51.416;6.758;2023-06-26T07:45:02;23.00;99.90
74901;DHT22;63461;51.416;6.758;2023-06-26T07:47:30;22.90;99.90
74901;DHT22;63461;51.416;6.758;2023-06-26T07:49:56;23.00;99.90
74901;DHT22;63461;51.416;6.758;2023-06-26T07:52:22;23.00;99.90
74901;DHT22;63461;51.416;6.758;2023-06-26T07:54:47;23.10;99.90
74901;DHT22;63461;51.416;6.758;2023-06-26T07:57:13;23.10;99.90
74901;DHT22;63461;51.416;6.758;2023-06-26T07:59:39;23.00;99.90
74901;DHT22;63461;51.416;6.758;2023-06-26T08:02:05;23.00;99.90
74901;DHT22;63461;51.416;6.758;2023-06-26T08:04:31;23.10;99.90
74901;DHT22;63461;51.416;6.758;2023-06-26T08:07:00;23.20;99.90
74901;DHT22;63461;51.416;6.758;2023-06-26T08:09:27;23.30;99.90
74901;DHT22;63461;51.416;6.758;2023-06-26T08:11:54;23.40;99.90
74901;DHT22;63461;51.416;6.758;2023-06-26T08:14:20;23.40;99.90
74901;DHT22;63461;51.416;6.758;2023-06-26T08:16:47;23.60;99.90
74901;DHT22;63461;51.416;6.758;2023-06-26T08:19:14;23.50;99.90
74901;DHT22;63461;51.416;6.758;2023-06-26T08:21:43;23.40;99.90
74901;DHT22;63461;51.416;6.758;2023-06-26T08:24:10;23.60;99.90
74901;DHT22;63461;51.416;6.758;2023-06-26T08:26:36;23.40;99.90
74901;DHT22;63461;51.416;6.758;2023-06-26T08:29:03;23.60;99.90
74901;DHT22;63461;51.416;6.758;2023-06-26T08:31:34;23.60;99.90
74901;DHT22;63461;51.416;6.758;2023-06-26T08:34:01;23.70;99.90
74901;DHT22;63461;51.416;6.758;2023-06-26T08:36:26;23.70;99.90
74901;DHT22;63461;51.416;6.758;2023-06-26T08:38:52;23.50;99.90
74901;DHT22;63461;51.416;6.758;2023-06-26T08:41:18;23.60;99.90
74901;DHT22;63461;51.416;6.758;2023-06-26T08:43:44;23.40;99.90
74901;DHT22;63461;51.416;6.758;2023-06-26T08:46:09;23.50;99.90
74901;DHT22;63461;51.416;6.758;2023-06-26T08:48:36;23.60;99.90
74901;DHT22;63461;51.416;6.758;2023-06-26T08:51:09;23.70;99.90
74901;DHT22;63461;51.416;6.758;2023-06-26T08:53:59;23.60;99.90
74901;DHT22;63461;51.416;6.758;2023-06-26T08:56:32;23.40;99.90
74901;DHT22;63461;51.416;6.758;2023-06-26T08:58:58;23.50;99.90
74901;DHT22;63461;51.416;6.758;2023-06-26T09:01:25;23.60;99.90
74901;DHT22;63461;51.416;6.758;2023-06-26T09:03:51;23.60;99.90
74901;DHT22;63461;51.416;6.758;2023-06-26T09:06:17;23.50;99.90
74901;DHT22;63461;51.416;6.758;2023-06-26T09:08:44;23.30;99.90
74901;DHT22;63461;51.416;6.758;2023-06-26T09:11:10;23.60;99.90
74901;DHT22;63461;51.416;6.758;2023-06-26T09:13:36;23.60;99.90
74901;DHT22;63461;51.416;6.758;2023-06-26T09:16:11;23.50;99.90
74901;DHT22;63461;51.416;6.758;2023-06-26T09:18:37;23.60;99.90
74901;DHT22;63461;51.416;6.758;2023-06-26T09:21:07;23.50;99.90
74901;DHT22;63461;51.416;6.758;2023-06-26T09:23:34;23.70;99.90
74901;DHT22;63461;51.416;6.758;2023-06-26T09:26:05;23.80;99.90
74901;DHT22;63461;51.416;6.758;2023-06-26T09:28:32;23.90;99.90
74901;DHT22;63461;51.416;6.758;2023-06-26T09:31:06;24.00;99.90
74901;DHT22;63461;51.416;6.758;2023-06-26T09:33:37;23.80;99.90
74901;DHT22;63461;51.416;6.758;2023-06-26T09:36:07;23.60;99.90
74901;DHT22;63461;51.416;6.758;2023-06-26T09:38:34;23.50;99.90
74901;DHT22;63461;51.416;6.758;2023-06-26T09:41:01;23.70;99.90
74901;DHT22;63461;51.416;6.758;2023-06-26T09:43:27;23.80;99.90
74901;DHT22;63461;51.416;6.758;2023-06-26T09:45:53;23.90;99.90
74901;DHT22;63461;51.416;6.758;2023-06-26T09:48:19;23.80;99.90
74901;DHT22;63461;51.416;6.758;2023-06-26T09:50:46;23.80;99.90
74901;DHT22;63461;51.416;6.758;2023-06-26T09:53:13;23.80;99.90
74901;DHT22;63461;51.416;6.758;2023-06-26T09:55:40;23.80;99.90
74901;DHT22;63461;51.416;6.758;2023-06-26T09:58:11;23.70;99.90
74901;DHT22;63461;51.416;6.758;2023-06-26T10:00:41;23.50;99.90
74901;DHT22;63461;51.416;6.758;2023-06-26T10:03:07;23.60;99.90
74901;DHT22;63461;51.416;6.758;2023-06-26T10:05:33;23.90;99.90
74901;DHT22;63461;51.416;6.758;2023-06-26T10:07:59;24.10;99.90
74901;DHT22;63461;51.416;6.758;2023-06-26T10:10:27;24.20;99.90
74901;DHT22;63461;51.416;6.758;2023-06-26T10:12:59;24.30;99.90
74901;DHT22;63461;51.416;6.758;2023-06-26T10:15:27;24.20;99.90
74901;DHT22;63461;51.416;6.758;2023-06-26T10:17:56;24.10;99.90
74901;DHT22;63461;51.416;6.758;2023-06-26T10:20:22;24.00;99.90
74901;DHT22;63461;51.416;6.758;2023-06-26T10:22:49;24.10;99.90
74901;DHT22;63461;51.416;6.758;2023-06-26T10:25:18;24.10;99.90
74901;DHT22;63461;51.416;6.758;2023-06-26T10:27:52;24.00;99.90
74901;DHT22;63461;51.416;6.758;2023-06-26T10:30:24;23.80;99.90
74901;DHT22;63461;51.416;6.758;2023-06-26T10:32:53;24.00;99.90
74901;DHT22;63461;51.416;6.758;2023-06-26T10:35:19;24.10;99.90
74901;DHT22;63461;51.416;6.758;2023-06-26T10:37:46;24.20;99.90
74901;DHT22;63461;51.416;6.758;2023-06-26T10:40:14;24.10;99.90
74901;DHT22;63461;51.416;6.758;2023-06-26T10:42:40;24.10;99.90
74901;DHT22;63461;51.416;6.758;2023-06-26T10:47:40;24.00;99.90
74901;DHT22;63461;51.416;6.758;2023-06-26T10:52:44;24.30;99.90
74901;DHT22;63461;51.416;6.758;2023-06-26T10:55:10;24.50;99.90
74901;DHT22;63461;51.416;6.758;2023-06-26T10:57:37;24.10;99.90
74901;DHT22;63461;51.416;6.758;2023-06-26T11:00:10;24.20;99.90
74901;DHT22;63461;51.416;6.758;2023-06-26T11:02:50;24.30;99.90
74901;DHT22;63461;51.416;6.758;2023-06-26T11:05:32;24.60;99.90
74901;DHT22;63461;51.416;6.758;2023-06-26T11:08:10;24.50;99.90
74901;DHT22;63461;51.416;6.758;2023-06-26T11:10:53;24.60;99.90
74901;DHT22;63461;51.416;6.758;2023-06-26T11:13:20;24.50;99.90
74901;DHT22;63461;51.416;6.758;2023-06-26T11:15:47;24.60;99.90
74901;DHT22;63461;51.416;6.758;2023-06-26T11:18:13;24.50;99.90
74901;DHT22;63461;51.416;6.758;2023-06-26T11:20:40;24.60;99.90
74901;DHT22;63461;51.416;6.758;2023-06-26T11:23:08;24.70;99.90
74901;DHT22;63461;51.416;6.758;2023-06-26T11:25:38;24.90;99.90
74901;DHT22;63461;51.416;6.758;2023-06-26T11:28:05;25.00;99.90
74901;DHT22;63461;51.416;6.758;2023-06-26T11:30:31;24.90;99.90
74901;DHT22;63461;51.416;6.758;2023-06-26T11:33:08;24.90;99.90
74901;DHT22;63461;51.416;6.758;2023-06-26T11:35:35;24.50;99.90
74901;DHT22;63461;51.416;6.758;2023-06-26T11:38:02;24.30;99.90
74901;DHT22;63461;51.416;6.758;2023-06-26T11:40:35;24.50;99.90
74901;DHT22;63461;51.416;6.758;2023-06-26T11:43:02;24.50;99.90
74901;DHT22;63461;51.416;6.758;2023-06-26T11:45:32;24.60;99.90
74901;DHT22;63461;51.416;6.758;2023-06-26T11:47:59;24.40;99.90
74901;DHT22;63461;51.416;6.758;2023-06-26T11:50:25;24.50;99.90
74901;DHT22;63461;51.416;6.758;2023-06-26T11:52:55;24.30;99.90
74901;DHT22;63461;51.416;6.758;2023-06-26T11:55:25;24.30;99.90
74901;DHT22;63461;51.416;6.758;2023-06-26T11:57:53;24.20;99.90
74901;DHT22;63461;51.416;6.758;2023-06-26T12:00:19;24.40;99.90
74901;DHT22;63461;51.416;6.758;2023-06-26T12:02:46;24.50;99.90
74901;DHT22;63461;51.416;6.758;2023-06-26T12:05:16;24.50;99.90
74901;DHT22;63461;51.416;6.758;2023-06-26T12:07:48;24.60;99.90
74901;DHT22;63461;51.416;6.758;2023-06-26T12:10:15;24.50;98.80
74901;DHT22;63461;51.416;6.758;2023-06-26T12:12:41;24.50;97.10
74901;DHT22;63461;51.416;6.758;2023-06-26T12:15:10;24.60;96.10
74901;DHT22;63461;51.416;6.758;2023-06-26T12:17:39;24.60;95.80
74901;DHT22;63461;51.416;6.758;2023-06-26T12:20:05;24.60;95.80
74901;DHT22;63461;51.416;6.758;2023-06-26T12:22:42;24.70;95.90
74901;DHT22;63461;51.416;6.758;2023-06-26T12:25:08;24.80;95.70
74901;DHT22;63461;51.416;6.758;2023-06-26T12:27:35;24.80;96.30
74901;DHT22;63461;51.416;6.758;2023-06-26T12:30:03;25.00;96.40
74901;DHT22;63461;51.416;6.758;2023-06-26T12:32:29;25.10;96.70
74901;DHT22;63461;51.416;6.758;2023-06-26T12:34:56;25.00;96.20
74901;DHT22;63461;51.416;6.758;2023-06-26T12:37:22;24.80;96.60
74901;DHT22;63461;51.416;6.758;2023-06-26T12:42:24;24.80;95.50
74901;DHT22;63461;51.416;6.758;2023-06-26T12:44:51;24.90;94.70
74901;DHT22;63461;51.416;6.758;2023-06-26T12:47:22;24.70;95.70
74901;DHT22;63461;51.416;6.758;2023-06-26T12:49:52;24.60;95.50
74901;DHT22;63461;51.416;6.758;2023-06-26T12:52:18;24.60;95.80
74901;DHT22;63461;51.416;6.758;2023-06-26T12:54:46;24.70;95.20
74901;DHT22;63461;51.416;6.758;2023-06-26T12:57:13;24.80;94.90
74901;DHT22;63461;51.416;6.758;2023-06-26T12:59:40;24.90;94.70
74901;DHT22;63461;51.416;6.758;2023-06-26T13:02:06;24.80;93.90
74901;DHT22;63461;51.416;6.758;2023-06-26T13:04:34;24.60;93.80
74901;DHT22;63461;51.416;6.758;2023-06-26T13:07:01;24.50;94.40
74901;DHT22;63461;51.416;6.758;2023-06-26T13:09:31;24.60;94.00
74901;DHT22;63461;51.416;6.758;2023-06-26T13:11:59;24.50;93.70
74901;DHT22;63461;51.416;6.758;2023-06-26T13:14:24;24.60;93.50
74901;DHT22;63461;51.416;6.758;2023-06-26T13:16:50;24.50;94.30
74901;DHT22;63461;51.416;6.758;2023-06-26T13:19:16;24.50;93.70
74901;DHT22;63461;51.416;6.758;2023-06-26T13:21:42;24.60;93.50
74901;DHT22;63461;51.416;6.758;2023-06-26T13:24:08;24.50;93.40
74901;DHT22;63461;51.416;6.758;2023-06-26T13:26:34;24.50;93.60
74901;DHT22;63461;51.416;6.758;2023-06-26T13:29:01;24.50;93.60
74901;DHT22;63461;51.416;6.758;2023-06-26T13:31:27;24.80;93.50
74901;DHT22;63461;51.416;6.758;2023-06-26T13:33:53;24.80;92.80
74901;DHT22;63461;51.416;6.758;2023-06-26T13:36:19;24.70;92.60
74901;DHT22;63461;51.416;6.758;2023-06-26T13:38:45;24.60;92.30
74901;DHT22;63461;51.416;6.758;2023-06-26T13:41:11;24.60;92.20
74901;DHT22;63461;51.416;6.758;2023-06-26T13:43:37;24.40;92.50
74901;DHT22;63461;51.416;6.758;2023-06-26T13:46:03;24.30;92.80
74901;DHT22;63461;51.416;6.758;2023-06-26T13:48:29;24.50;92.20
74901;DHT22;63461;51.416;6.758;2023-06-26T13:50:55;24.40;92.60
74901;DHT22;63461;51.416;6.758;2023-06-26T13:53:21;24.40;92.60
74901;DHT22;63461;51.416;6.758;2023-06-26T13:55:48;24.40;92.40
74901;DHT22;63461;51.416;6.758;2023-06-26T13:58:14;24.30;92.20
74901;DHT22;63461;51.416;6.758;2023-06-26T14:00:40;24.30;92.20
74901;DHT22;63461;51.416;6.758;2023-06-26T14:03:07;24.30;91.90
74901;DHT22;63461;51.416;6.758;2023-06-26T14:05:33;24.60;91.70
74901;DHT22;63461;51.416;6.758;2023-06-26T14:08:01;24.70;91.80
74901;DHT22;63461;51.416;6.758;2023-06-26T14:10:27;24.70;91.70
74901;DHT22;63461;51.416;6.758;2023-06-26T14:12:53;24.80;91.70
74901;DHT22;63461;51.416;6.758;2023-06-26T14:15:19;24.80;91.60
74901;DHT22;63461;51.416;6.758;2023-06-26T14:17:45;24.70;91.30
74901;DHT22;63461;51.416;6.758;2023-06-26T14:20:11;24.80;91.90
74901;DHT22;63461;51.416;6.758;2023-06-26T14:22:40;24.80;92.40
74901;DHT22;63461;51.416;6.758;2023-06-26T14:25:07;24.80;92.60
74901;DHT22;63461;51.416;6.758;2023-06-26T14:27:33;25.00;91.70
74901;DHT22;63461;51.416;6.758;2023-06-26T14:29:59;25.10;91.70
74901;DHT22;63461;51.416;6.758;2023-06-26T14:32:25;25.30;90.00
74901;DHT22;63461;51.416;6.758;2023-06-26T14:34:50;25.40;90.40
74901;DHT22;63461;51.416;6.758;2023-06-26T14:37:16;25.20;90.80
74901;DHT22;63461;51.416;6.758;2023-06-26T14:39:45;25.10;91.00
74901;DHT22;63461;51.416;6.758;2023-06-26T14:42:10;25.10;90.90
74901;DHT22;63461;51.416;6.758;2023-06-26T14:44:36;25.40;90.70
74901;DHT22;63461;51.416;6.758;2023-06-26T14:47:02;25.50;91.10
74901;DHT22;63461;51.416;6.758;2023-06-26T14:49:28;25.50;90.00
74901;DHT22;63461;51.416;6.758;2023-06-26T14:51:54;25.30;87.80
74901;DHT22;63461;51.416;6.758;2023-06-26T14:54:20;25.00;87.80
74901;DHT22;63461;51.416;6.758;2023-06-26T14:56:45;25.10;87.70
74901;DHT22;63461;51.416;6.758;2023-06-26T14:59:11;25.20;89.80
74901;DHT22;63461;51.416;6.758;2023-06-26T15:01:38;25.20;87.20
74901;DHT22;63461;51.416;6.758;2023-06-26T15:04:05;25.20;86.70
74901;DHT22;63461;51.416;6.758;2023-06-26T15:06:32;25.20;84.40
74901;DHT22;63461;51.416;6.758;2023-06-26T15:08:58;25.20;86.20
74901;DHT22;63461;51.416;6.758;2023-06-26T15:11:24;25.30;87.30
74901;DHT22;63461;51.416;6.758;2023-06-26T15:13:50;25.10;87.40
74901;DHT22;63461;51.416;6.758;2023-06-26T15:16:15;25.10;87.00
74901;DHT22;63461;51.416;6.758;2023-06-26T15:18:41;25.00;88.90
74901;DHT22;63461;51.416;6.758;2023-06-26T15:21:07;24.90;90.40
74901;DHT22;63461;51.416;6.758;2023-06-26T15:23:34;24.80;90.60
74901;DHT22;63461;51.416;6.758;2023-06-26T15:26:00;24.80;91.00
74901;DHT22;63461;51.416;6.758;2023-06-26T15:28:26;25.00;90.50
74901;DHT22;63461;51.416;6.758;2023-06-26T15:30:51;25.00;90.00
74901;DHT22;63461;51.416;6.758;2023-06-26T15:33:17;25.00;90.20
74901;DHT22;63461;51.416;6.758;2023-06-26T15:35:43;24.90;90.00
74901;DHT22;63461;51.416;6.758;2023-06-26T15:38:09;24.80;90.40
74901;DHT22;63461;51.416;6.758;2023-06-26T15:40:35;24.90;90.50
74901;DHT22;63461;51.416;6.758;2023-06-26T15:43:01;24.90;90.60
74901;DHT22;63461;51.416;6.758;2023-06-26T15:45:27;24.80;90.40